createdAt,value
2023-02-08T00:00:02.527Z,33.00
2023-02-08T00:02:35.677Z,33.00
2023-02-08T00:05:03.916Z,33.60
2023-02-08T00:07:32.111Z,34.00
2023-02-08T00:10:00.193Z,34.20
2023-02-08T00:12:29.673Z,34.30
2023-02-08T00:14:57.680Z,34.40
2023-02-08T00:17:25.821Z,34.40
2023-02-08T00:19:54.190Z,34.60
2023-02-08T00:22:22.225Z,34.80
2023-02-08T00:24:51.033Z,34.60
2023-02-08T00:27:19.109Z,34.60
2023-02-08T00:29:48.498Z,34.80
2023-02-08T00:32:16.486Z,35.10
2023-02-08T00:34:45.042Z,35.30
2023-02-08T00:37:13.078Z,35.70
2023-02-08T00:39:41.679Z,35.70
2023-02-08T00:42:09.683Z,36.00
2023-02-08T00:44:37.740Z,36.10
2023-02-08T00:47:07.148Z,36.40
2023-02-08T00:49:35.227Z,36.80
2023-02-08T00:52:03.287Z,37.00
2023-02-08T00:54:32.023Z,37.20
2023-02-08T00:57:00.118Z,37.20
2023-02-08T00:59:29.380Z,36.90
2023-02-08T01:01:57.474Z,36.80
2023-02-08T01:04:27.466Z,36.20
2023-02-08T01:06:55.617Z,36.00
2023-02-08T01:09:23.961Z,35.50
2023-02-08T01:11:51.974Z,35.00
2023-02-08T01:14:20.121Z,34.90
2023-02-08T01:16:48.132Z,35.20
2023-02-08T01:19:16.328Z,35.20
2023-02-08T01:21:46.058Z,35.30
2023-02-08T01:24:14.082Z,34.70
2023-02-08T01:26:42.229Z,35.20
2023-02-08T01:29:10.361Z,35.30
2023-02-08T01:31:41.133Z,35.40
2023-02-08T01:34:10.018Z,35.60
2023-02-08T01:36:38.444Z,35.50
2023-02-08T01:39:11.871Z,35.60
2023-02-08T01:41:40.489Z,35.30
2023-02-08T01:44:29.345Z,35.50
2023-02-08T01:46:57.466Z,35.30
2023-02-08T01:49:26.920Z,35.40
2023-02-08T01:51:56.589Z,35.30
2023-02-08T01:54:27.046Z,35.80
2023-02-08T01:56:55.101Z,35.60
2023-02-08T01:59:26.516Z,35.90
2023-02-08T02:01:55.441Z,36.10
2023-02-08T02:04:23.844Z,36.50
2023-02-08T02:06:53.078Z,37.00
2023-02-08T02:09:24.288Z,36.90
2023-02-08T02:11:55.268Z,37.50
2023-02-08T02:14:23.541Z,37.30
2023-02-08T02:16:51.491Z,37.50
2023-02-08T02:19:25.340Z,37.30
2023-02-08T02:21:58.818Z,37.70
2023-02-08T02:24:42.198Z,38.10
2023-02-08T02:27:25.981Z,38.30
2023-02-08T02:30:12.795Z,37.70
2023-02-08T02:32:48.897Z,37.70
2023-02-08T02:35:21.259Z,37.60
2023-02-08T02:37:55.563Z,37.70
2023-02-08T02:40:27.847Z,37.50
2023-02-08T02:43:19.699Z,38.10
2023-02-08T02:45:50.848Z,38.10
2023-02-08T02:48:23.862Z,38.30
2023-02-08T02:50:54.367Z,38.50
2023-02-08T02:53:26.361Z,38.20
2023-02-08T02:55:57.476Z,37.50
2023-02-08T02:58:26.033Z,37.10
2023-02-08T03:00:54.974Z,37.20
2023-02-08T03:03:25.597Z,37.20
2023-02-08T03:05:55.478Z,35.40
2023-02-08T03:08:38.072Z,35.40
2023-02-08T03:11:16.891Z,35.30
2023-02-08T03:13:53.896Z,35.10
2023-02-08T03:16:33.908Z,35.00
2023-02-08T03:19:08.963Z,35.40
2023-02-08T03:21:41.460Z,35.20
2023-02-08T03:24:18.768Z,35.50
2023-02-08T03:26:51.578Z,35.70
2023-02-08T03:29:25.640Z,35.40
2023-02-08T03:31:56.625Z,35.20
2023-02-08T03:34:30.150Z,35.00
2023-02-08T03:37:01.066Z,34.90
2023-02-08T03:39:30.209Z,35.30
2023-02-08T03:42:00.209Z,35.60
2023-02-08T03:44:30.209Z,36.10
2023-02-08T03:47:02.681Z,36.10
2023-02-08T03:49:33.244Z,36.40
2023-02-08T03:52:02.596Z,35.00
2023-02-08T03:54:33.006Z,35.50
2023-02-08T03:57:05.468Z,36.80
2023-02-08T03:59:35.567Z,37.90
2023-02-08T04:02:05.113Z,38.00
2023-02-08T04:04:36.154Z,38.50
2023-02-08T04:07:04.411Z,39.20
2023-02-08T04:09:32.407Z,39.40
2023-02-08T04:12:00.596Z,39.30
2023-02-08T04:14:28.602Z,39.70
2023-02-08T04:16:56.566Z,39.90
2023-02-08T04:19:24.597Z,40.10
2023-02-08T04:21:54.219Z,40.10
2023-02-08T04:24:22.194Z,40.10
2023-02-08T04:26:50.224Z,40.10
2023-02-08T04:29:18.251Z,40.50
2023-02-08T04:31:46.399Z,40.90
2023-02-08T04:34:14.520Z,40.90
2023-02-08T04:36:43.027Z,41.00
2023-02-08T04:39:12.377Z,41.30
2023-02-08T04:41:40.349Z,41.20
2023-02-08T04:44:08.336Z,41.30
2023-02-08T04:46:36.519Z,41.50
2023-02-08T04:49:04.463Z,41.40
2023-02-08T04:51:32.392Z,41.50
2023-02-08T04:54:00.441Z,41.40
2023-02-08T04:56:30.060Z,41.20
2023-02-08T04:58:58.125Z,40.70
2023-02-08T05:01:26.105Z,40.00
2023-02-08T05:03:54.194Z,39.90
2023-02-08T05:06:22.275Z,39.70
2023-02-08T05:08:50.270Z,39.80
2023-02-08T05:11:20.915Z,39.90
2023-02-08T05:13:50.432Z,39.80
2023-02-08T05:16:18.912Z,39.90
2023-02-08T05:18:46.964Z,40.20
2023-02-08T05:21:15.037Z,40.60
2023-02-08T05:23:44.827Z,40.70
2023-02-08T05:26:15.162Z,40.70
2023-02-08T05:28:43.110Z,40.80
2023-02-08T05:31:13.498Z,40.60
2023-02-08T05:33:41.577Z,40.70
2023-02-08T05:36:10.128Z,41.10
2023-02-08T05:38:38.672Z,41.40
2023-02-08T05:41:06.689Z,41.40
2023-02-08T05:43:34.892Z,41.50
2023-02-08T05:46:03.047Z,41.30
2023-02-08T05:48:32.435Z,40.90
2023-02-08T05:51:00.589Z,41.50
2023-02-08T05:53:28.775Z,40.40
2023-02-08T05:55:58.054Z,40.20
2023-02-08T05:58:26.632Z,40.40
2023-02-08T06:00:54.833Z,40.80
2023-02-08T06:03:23.064Z,40.50
2023-02-08T06:05:52.505Z,40.20
2023-02-08T06:08:20.735Z,39.10
2023-02-08T06:10:49.799Z,39.30
2023-02-08T06:13:18.011Z,38.60
2023-02-08T06:15:46.333Z,38.20
2023-02-08T06:18:14.328Z,37.90
2023-02-08T06:20:42.554Z,38.40
2023-02-08T06:23:12.302Z,38.30
2023-02-08T06:25:40.285Z,37.90
2023-02-08T06:28:10.710Z,37.20
2023-02-08T06:30:39.649Z,36.90
2023-02-08T06:33:07.830Z,37.20
2023-02-08T06:35:35.820Z,36.50
2023-02-08T06:38:03.887Z,37.50
2023-02-08T06:40:33.290Z,37.90
2023-02-08T06:43:01.330Z,38.00
2023-02-08T06:45:29.470Z,38.30
2023-02-08T06:47:57.543Z,39.30
2023-02-08T06:50:27.017Z,39.50
2023-02-08T06:52:55.356Z,40.00
2023-02-08T06:55:23.425Z,40.20
2023-02-08T06:57:55.501Z,40.20
2023-02-08T07:00:24.105Z,39.70
2023-02-08T07:02:52.607Z,40.10
2023-02-08T07:05:20.640Z,40.10
2023-02-08T07:07:49.464Z,39.80
2023-02-08T07:10:17.532Z,40.00
2023-02-08T07:12:45.585Z,40.20
2023-02-08T07:15:15.275Z,40.50
2023-02-08T07:17:43.272Z,41.10
2023-02-08T07:20:12.348Z,41.50
2023-02-08T07:22:41.090Z,41.60
2023-02-08T07:25:09.625Z,41.50
2023-02-08T07:27:37.744Z,42.20
2023-02-08T07:30:08.144Z,41.60
2023-02-08T07:32:37.589Z,41.70
2023-02-08T07:35:05.936Z,41.70
2023-02-08T07:37:33.964Z,41.70
2023-02-08T07:40:02.090Z,41.80
2023-02-08T07:42:30.172Z,41.80
2023-02-08T07:45:14.378Z,41.80
2023-02-08T07:47:43.861Z,42.00
2023-02-08T07:50:11.929Z,42.00
2023-02-08T07:52:41.197Z,42.60
2023-02-08T07:55:09.962Z,42.80
2023-02-08T07:57:38.201Z,43.10
2023-02-08T08:00:06.953Z,43.50
2023-02-08T08:02:40.631Z,43.70
2023-02-08T08:05:10.577Z,43.60
2023-02-08T08:07:39.069Z,43.50
2023-02-08T08:10:07.568Z,43.60
2023-02-08T08:12:35.616Z,43.70
2023-02-08T08:15:03.628Z,44.00
2023-02-08T08:17:31.883Z,44.50
2023-02-08T08:19:59.958Z,44.30
2023-02-08T08:22:29.976Z,44.00
2023-02-08T08:24:58.846Z,42.50
2023-02-08T08:27:27.037Z,41.70
2023-02-08T08:29:55.087Z,41.40
2023-02-08T08:32:23.825Z,40.10
2023-02-08T08:34:51.998Z,39.00
2023-02-08T08:37:20.081Z,38.40
2023-02-08T08:39:49.490Z,37.60
2023-02-08T08:42:18.271Z,36.60
2023-02-08T08:44:46.377Z,36.60
2023-02-08T08:47:14.604Z,36.20
2023-02-08T08:49:43.884Z,35.10
2023-02-08T08:52:12.330Z,34.20
2023-02-08T08:54:40.535Z,33.50
2023-02-08T08:57:10.124Z,33.10
2023-02-08T08:59:38.178Z,32.80
2023-02-08T09:02:06.326Z,31.50
2023-02-08T09:04:35.003Z,31.80
2023-02-08T09:07:03.087Z,31.10
2023-02-08T09:09:31.191Z,31.20
2023-02-08T09:11:59.242Z,31.10
2023-02-08T09:14:28.943Z,30.30
2023-02-08T09:16:57.066Z,29.60
2023-02-08T09:19:25.220Z,29.10
2023-02-08T09:21:53.221Z,29.20
2023-02-08T09:24:21.340Z,28.90
2023-02-08T09:26:49.459Z,28.60
2023-02-08T09:29:17.423Z,28.10
2023-02-08T09:31:47.125Z,28.20
2023-02-08T09:34:15.193Z,28.20
2023-02-08T09:36:43.281Z,27.10
2023-02-08T09:39:12.781Z,27.60
2023-02-08T09:41:50.460Z,27.70
2023-02-08T09:44:24.568Z,26.60
2023-02-08T09:46:57.429Z,25.80
2023-02-08T09:49:27.258Z,26.10
2023-02-08T09:51:58.021Z,26.30
2023-02-08T09:54:29.357Z,25.30
2023-02-08T09:56:58.183Z,25.70
2023-02-08T09:59:28.847Z,24.20
2023-02-08T10:02:01.177Z,23.70
2023-02-08T10:04:31.542Z,25.60
2023-02-08T10:06:59.617Z,23.70
2023-02-08T10:09:28.447Z,24.50
2023-02-08T10:12:03.108Z,24.20
2023-02-08T10:14:41.456Z,24.60
2023-02-08T10:17:21.088Z,24.80
2023-02-08T10:19:55.510Z,23.80
2023-02-08T10:22:27.801Z,24.00
2023-02-08T10:25:02.584Z,24.20
2023-02-08T10:27:37.638Z,22.50
2023-02-08T10:30:14.096Z,23.30
2023-02-08T10:32:51.381Z,24.70
2023-02-08T10:35:25.148Z,23.00
2023-02-08T10:37:53.799Z,22.90
2023-02-08T10:40:31.279Z,22.80
2023-02-08T10:43:04.180Z,23.40
2023-02-08T10:45:37.355Z,21.70
2023-02-08T10:48:10.842Z,21.70
2023-02-08T10:50:40.359Z,22.50
2023-02-08T10:53:15.404Z,21.10
2023-02-08T10:55:44.773Z,23.20
2023-02-08T10:58:15.664Z,22.00
2023-02-08T11:00:44.478Z,22.60
2023-02-08T11:03:20.042Z,22.80
2023-02-08T11:05:48.241Z,20.40
2023-02-08T11:08:19.477Z,22.10
2023-02-08T11:10:56.426Z,22.50
2023-02-08T11:13:25.586Z,20.90
2023-02-08T11:15:56.520Z,21.20
2023-02-08T11:18:27.423Z,20.80
2023-02-08T11:20:57.142Z,20.70
2023-02-08T11:23:27.112Z,20.20
2023-02-08T11:25:55.642Z,22.30
2023-02-08T11:28:28.404Z,21.50
2023-02-08T11:30:57.222Z,21.30
2023-02-08T11:33:27.546Z,20.90
2023-02-08T11:35:57.074Z,20.80
2023-02-08T11:38:28.192Z,22.50
2023-02-08T11:40:57.738Z,21.30
2023-02-08T11:43:26.930Z,20.60
2023-02-08T11:45:56.772Z,20.60
2023-02-08T11:48:30.201Z,20.60
2023-02-08T11:50:59.825Z,19.90
2023-02-08T11:53:31.250Z,19.40
2023-02-08T11:56:03.662Z,20.60
2023-02-08T11:58:31.895Z,19.00
2023-02-08T12:01:01.441Z,20.60
2023-02-08T12:03:33.642Z,20.50
2023-02-08T12:06:06.799Z,20.00
2023-02-08T12:08:39.510Z,19.50
2023-02-08T12:11:12.428Z,20.80
2023-02-08T12:13:45.424Z,20.10
2023-02-08T12:16:18.256Z,19.70
2023-02-08T12:18:55.184Z,19.00
2023-02-08T12:21:26.198Z,18.70
2023-02-08T12:23:55.869Z,19.30
2023-02-08T12:26:35.579Z,19.90
2023-02-08T12:29:11.404Z,19.00
2023-02-08T12:31:46.464Z,20.50
2023-02-08T12:34:18.812Z,18.80
2023-02-08T12:37:22.408Z,19.70
2023-02-08T12:40:12.969Z,18.40
2023-02-08T12:42:46.160Z,17.80
2023-02-08T12:45:22.184Z,18.40
2023-02-08T12:48:04.376Z,18.60
2023-02-08T12:50:37.936Z,18.30
2023-02-08T12:53:09.674Z,18.30
2023-02-08T12:55:38.121Z,19.20
2023-02-08T12:58:12.844Z,17.10
2023-02-08T13:00:42.627Z,16.90
2023-02-08T13:03:16.967Z,16.50
2023-02-08T13:06:01.257Z,16.20
2023-02-08T13:08:31.192Z,17.90
2023-02-08T13:11:14.093Z,18.20
2023-02-08T13:13:58.503Z,18.00
2023-02-08T13:16:29.402Z,16.90
2023-02-08T13:19:02.514Z,17.00
2023-02-08T13:21:37.997Z,16.90
2023-02-08T13:24:07.884Z,16.00
2023-02-08T13:26:36.685Z,17.20
2023-02-08T13:29:04.807Z,17.40
2023-02-08T13:31:34.462Z,17.80
2023-02-08T13:34:08.169Z,16.70
2023-02-08T13:36:38.725Z,17.10
2023-02-08T13:39:08.908Z,16.30
2023-02-08T13:41:37.999Z,15.30
2023-02-08T13:44:07.492Z,15.50
2023-02-08T13:46:37.266Z,14.50
2023-02-08T13:49:05.595Z,15.30
2023-02-08T13:51:58.558Z,15.00
2023-02-08T13:54:28.185Z,15.60
2023-02-08T13:56:56.412Z,13.70
2023-02-08T13:59:35.218Z,15.60
2023-02-08T14:02:36.817Z,15.10
2023-02-08T14:05:25.601Z,15.80
2023-02-08T14:07:58.186Z,16.30
2023-02-08T14:10:32.037Z,16.00
2023-02-08T14:13:02.607Z,16.50
2023-02-08T14:15:36.719Z,17.00
2023-02-08T14:18:06.075Z,15.80
2023-02-08T14:20:36.284Z,16.50
2023-02-08T14:23:05.296Z,15.20
2023-02-08T14:25:43.057Z,15.00
2023-02-08T14:28:24.653Z,15.20
2023-02-08T14:30:54.216Z,14.60
2023-02-08T14:33:24.198Z,13.70
2023-02-08T14:35:54.112Z,14.60
2023-02-08T14:38:55.561Z,14.40
2023-02-08T14:41:42.305Z,14.30
2023-02-08T14:44:34.510Z,13.80
2023-02-08T14:47:04.204Z,14.80
2023-02-08T14:49:36.794Z,14.70
2023-02-08T14:52:06.346Z,15.90
2023-02-08T14:54:37.200Z,15.00
2023-02-08T14:57:07.604Z,14.80
2023-02-08T14:59:36.483Z,15.10
2023-02-08T15:02:12.298Z,15.80
2023-02-08T15:04:43.221Z,16.40
2023-02-08T15:07:33.537Z,16.20
2023-02-08T15:10:03.728Z,15.90
2023-02-08T15:12:33.755Z,16.70
2023-02-08T15:15:03.525Z,16.20
2023-02-08T15:17:34.789Z,16.10
2023-02-08T15:20:04.253Z,15.70
2023-02-08T15:22:33.883Z,15.60
2023-02-08T15:25:05.741Z,16.50
2023-02-08T15:27:34.768Z,16.00
2023-02-08T15:30:03.006Z,16.10
2023-02-08T15:32:31.168Z,16.60
2023-02-08T15:35:01.861Z,16.30
2023-02-08T15:37:31.733Z,15.70
2023-02-08T15:40:00.395Z,16.20
2023-02-08T15:42:30.157Z,16.40
2023-02-08T15:45:00.565Z,16.30
2023-02-08T15:47:30.104Z,16.60
2023-02-08T15:49:58.906Z,16.20
2023-02-08T15:52:29.956Z,17.00
2023-02-08T15:54:58.203Z,16.40
2023-02-08T15:57:33.351Z,16.50
2023-02-08T16:00:02.045Z,16.40
2023-02-08T16:02:31.089Z,16.40
2023-02-08T16:05:00.183Z,16.30
2023-02-08T16:07:32.286Z,16.20
2023-02-08T16:10:00.641Z,17.30
2023-02-08T16:12:29.414Z,18.10
2023-02-08T16:14:57.624Z,17.80
2023-02-08T16:17:39.365Z,18.00
2023-02-08T16:20:23.182Z,18.50
2023-02-08T16:22:57.309Z,18.80
2023-02-08T16:25:34.148Z,18.50
2023-02-08T16:28:02.736Z,18.00
2023-02-08T16:30:30.990Z,19.00
2023-02-08T16:32:59.282Z,18.80
2023-02-08T16:35:29.494Z,18.40
2023-02-08T16:38:00.784Z,18.80
2023-02-08T16:40:51.341Z,19.40
2023-02-08T16:43:21.579Z,19.60
2023-02-08T16:46:04.780Z,19.80
2023-02-08T16:48:36.011Z,20.20
2023-02-08T16:51:06.096Z,20.10
2023-02-08T16:53:42.352Z,20.20
2023-02-08T16:56:11.458Z,20.10
2023-02-08T16:58:39.996Z,20.20
2023-02-08T17:01:11.246Z,20.20
2023-02-08T17:03:39.375Z,20.10
2023-02-08T17:06:08.294Z,20.10
2023-02-08T17:08:37.687Z,20.00
2023-02-08T17:11:06.010Z,20.10
2023-02-08T17:13:34.062Z,20.10
2023-02-08T17:16:02.221Z,20.00
2023-02-08T17:18:33.229Z,19.90
2023-02-08T17:21:02.782Z,20.50
2023-02-08T17:23:31.024Z,21.20
2023-02-08T17:26:00.678Z,20.60
2023-02-08T17:28:28.789Z,21.10
2023-02-08T17:30:56.979Z,21.20
2023-02-08T17:33:26.334Z,20.90
2023-02-08T17:35:54.991Z,21.40
2023-02-08T17:38:23.143Z,21.30
2023-02-08T17:40:51.304Z,21.40
2023-02-08T17:43:20.874Z,21.70
2023-02-08T17:45:49.202Z,21.80
2023-02-08T17:48:17.434Z,22.70
2023-02-08T17:50:50.854Z,22.20
2023-02-08T17:53:19.327Z,22.80
2023-02-08T17:55:47.579Z,22.90
2023-02-08T17:58:15.829Z,22.00
2023-02-08T18:00:45.434Z,22.40
2023-02-08T18:03:13.849Z,22.10
2023-02-08T18:05:42.431Z,21.90
2023-02-08T18:08:10.838Z,21.80
2023-02-08T18:10:39.033Z,21.20
2023-02-08T18:13:07.124Z,21.50
2023-02-08T18:15:35.254Z,20.90
2023-02-08T18:18:05.014Z,21.50
2023-02-08T18:20:33.158Z,21.30
2023-02-08T18:23:01.510Z,21.60
2023-02-08T18:25:30.095Z,21.60
2023-02-08T18:27:58.244Z,21.90
2023-02-08T18:30:27.962Z,21.90
2023-02-08T18:32:56.255Z,22.20
2023-02-08T18:35:26.541Z,22.00
2023-02-08T18:37:54.640Z,21.80
2023-02-08T18:40:23.078Z,22.70
2023-02-08T18:42:51.123Z,22.00
2023-02-08T18:45:19.180Z,22.10
2023-02-08T18:47:47.317Z,21.90
2023-02-08T18:50:17.343Z,22.20
2023-02-08T18:52:46.780Z,22.10
2023-02-08T18:55:14.965Z,22.60
2023-02-08T18:57:43.188Z,22.80
2023-02-08T19:00:11.992Z,23.00
2023-02-08T19:02:40.013Z,23.50
2023-02-08T19:05:08.479Z,23.50
2023-02-08T19:07:36.877Z,23.20
2023-02-08T19:10:07.168Z,23.10
2023-02-08T19:12:36.687Z,23.10
2023-02-08T19:15:04.847Z,23.20
2023-02-08T19:17:32.975Z,23.00
2023-02-08T19:20:01.040Z,23.20
2023-02-08T19:22:29.159Z,23.20
2023-02-08T19:24:57.391Z,23.40
2023-02-08T19:27:27.015Z,23.40
2023-02-08T19:29:56.222Z,23.40
2023-02-08T19:32:24.443Z,23.50
2023-02-08T19:34:52.490Z,23.40
2023-02-08T19:37:20.798Z,23.80
2023-02-08T19:39:48.982Z,24.20
2023-02-08T19:42:17.072Z,23.70
2023-02-08T19:44:46.531Z,23.90
2023-02-08T19:47:14.619Z,24.00
2023-02-08T19:49:42.840Z,24.60
2023-02-08T19:52:10.958Z,24.80
2023-02-08T19:54:39.167Z,24.20
2023-02-08T19:57:11.602Z,24.40
2023-02-08T19:59:39.762Z,25.00
2023-02-08T20:02:11.567Z,25.20
2023-02-08T20:04:39.767Z,25.70
2023-02-08T20:07:08.314Z,25.30
2023-02-08T20:09:36.665Z,25.20
2023-02-08T20:12:05.166Z,24.80
2023-02-08T20:14:34.629Z,24.60
2023-02-08T20:17:03.118Z,24.80
2023-02-08T20:19:32.617Z,25.30
2023-02-08T20:22:00.731Z,25.00
2023-02-08T20:24:28.795Z,25.10
2023-02-08T20:26:56.907Z,25.70
2023-02-08T20:29:26.295Z,25.70
2023-02-08T20:31:55.808Z,26.00
2023-02-08T20:34:23.962Z,26.90
2023-02-08T20:37:06.483Z,26.50
2023-02-08T20:39:36.069Z,26.00
2023-02-08T20:42:04.377Z,25.90
2023-02-08T20:44:32.653Z,25.90
2023-02-08T20:47:01.147Z,26.20
2023-02-08T20:49:32.044Z,26.10
2023-02-08T20:52:01.677Z,26.20
2023-02-08T20:54:29.944Z,26.50
2023-02-08T20:56:58.229Z,26.60
2023-02-08T20:59:26.312Z,26.60
2023-02-08T21:01:54.427Z,27.00
2023-02-08T21:04:23.861Z,26.80
2023-02-08T21:06:52.229Z,26.80
2023-02-08T21:09:22.030Z,26.60
2023-02-08T21:11:50.977Z,26.60
2023-02-08T21:14:20.952Z,26.50
2023-02-08T21:16:51.066Z,26.60
2023-02-08T21:19:20.436Z,26.60
2023-02-08T21:21:51.226Z,26.60
2023-02-08T21:24:19.484Z,26.70
2023-02-08T21:26:48.862Z,26.50
2023-02-08T21:29:17.034Z,26.10
2023-02-08T21:31:45.302Z,26.80
2023-02-08T21:34:13.970Z,27.00
2023-02-08T21:36:42.154Z,27.40
2023-02-08T21:39:10.329Z,27.60
2023-02-08T21:41:38.383Z,28.20
2023-02-08T21:44:09.320Z,28.80
2023-02-08T21:46:37.421Z,28.50
2023-02-08T21:49:23.184Z,28.40
2023-02-08T21:52:08.987Z,29.40
2023-02-08T21:54:44.167Z,29.90
2023-02-08T21:57:14.365Z,30.60
2023-02-08T21:59:44.233Z,31.20
2023-02-08T22:02:14.327Z,30.60
2023-02-08T22:04:46.575Z,30.30
2023-02-08T22:07:15.026Z,30.70
2023-02-08T22:09:43.207Z,30.30
2023-02-08T22:12:13.854Z,30.30
2023-02-08T22:14:41.985Z,30.20
2023-02-08T22:17:11.482Z,30.30
2023-02-08T22:19:40.162Z,30.50
2023-02-08T22:22:08.647Z,29.90
2023-02-08T22:24:37.167Z,29.60
2023-02-08T22:27:05.343Z,29.10
2023-02-08T22:29:33.694Z,29.40
2023-02-08T22:32:02.097Z,29.40
2023-02-08T22:34:31.652Z,29.30
2023-02-08T22:37:03.681Z,29.20
2023-02-08T22:39:32.879Z,28.80
2023-02-08T22:42:01.005Z,29.10
2023-02-08T22:44:29.138Z,29.40
2023-02-08T22:46:57.890Z,29.40
2023-02-08T22:49:26.064Z,28.90
2023-02-08T22:51:55.647Z,29.50
2023-02-08T22:54:23.849Z,28.90
2023-02-08T22:56:52.144Z,29.00
2023-02-08T22:59:20.332Z,29.10
2023-02-08T23:01:49.499Z,28.90
2023-02-08T23:04:17.652Z,28.70
2023-02-08T23:06:45.793Z,28.90
2023-02-08T23:09:15.253Z,28.60
2023-02-08T23:11:43.401Z,28.60
2023-02-08T23:14:11.539Z,28.60
2023-02-08T23:16:39.938Z,28.30
2023-02-08T23:19:08.085Z,29.10
2023-02-08T23:21:36.525Z,28.70
2023-02-08T23:24:06.195Z,28.50
2023-02-08T23:26:35.620Z,28.50
2023-02-08T23:29:04.080Z,28.70
2023-02-08T23:31:32.325Z,28.40
2023-02-08T23:34:00.618Z,28.80
2023-02-08T23:36:28.753Z,29.40
2023-02-08T23:38:56.916Z,29.70
2023-02-08T23:41:25.125Z,30.20
2023-02-08T23:43:54.549Z,30.40
2023-02-08T23:46:23.285Z,30.00
2023-02-08T23:48:51.697Z,29.90
2023-02-08T23:51:21.467Z,30.10
2023-02-08T23:53:49.922Z,30.00
2023-02-08T23:56:19.638Z,30.10
2023-02-08T23:58:48.340Z,30.10
